sensor_id;sensor_type;location;lat;lon;timestamp;P1;durP1;ratioP1;P2;durP2;ratioP2
7517;SDS011;3800;48.922;9.444;2023-09-19T00:02:18;2.40;;;1.10;;
7517;SDS011;3800;48.922;9.444;2023-09-19T00:04:46;1.80;;;1.50;;
7517;SDS011;3800;48.922;9.444;2023-09-19T00:07:15;2.63;;;1.30;;
7517;SDS011;3800;48.922;9.444;2023-09-19T00:09:43;1.57;;;1.17;;
7517;SDS011;3800;48.922;9.444;2023-09-19T00:12:11;2.30;;;1.30;;
7517;SDS011;3800;48.922;9.444;2023-09-19T00:14:41;2.73;;;1.40;;
7517;SDS011;3800;48.922;9.444;2023-09-19T00:17:09;4.17;;;1.50;;
7517;SDS011;3800;48.922;9.444;2023-09-19T00:19:37;1.97;;;1.30;;
7517;SDS011;3800;48.922;9.444;2023-09-19T00:22:06;2.00;;;1.40;;
7517;SDS011;3800;48.922;9.444;2023-09-19T00:24:35;1.50;;;1.30;;
7517;SDS011;3800;48.922;9.444;2023-09-19T00:27:04;1.40;;;1.20;;
7517;SDS011;3800;48.922;9.444;2023-09-19T00:29:33;1.87;;;1.50;;
7517;SDS011;3800;48.922;9.444;2023-09-19T00:32:02;1.43;;;1.10;;
7517;SDS011;3800;48.922;9.444;2023-09-19T00:34:30;1.33;;;1.20;;
7517;SDS011;3800;48.922;9.444;2023-09-19T00:36:58;2.37;;;1.33;;
7517;SDS011;3800;48.922;9.444;2023-09-19T00:39:26;1.77;;;1.33;;
7517;SDS011;3800;48.922;9.444;2023-09-19T00:41:57;3.20;;;1.47;;
7517;SDS011;3800;48.922;9.444;2023-09-19T00:44:25;3.33;;;1.30;;
7517;SDS011;3800;48.922;9.444;2023-09-19T00:46:53;2.27;;;1.50;;
7517;SDS011;3800;48.922;9.444;2023-09-19T00:49:22;2.13;;;1.40;;
7517;SDS011;3800;48.922;9.444;2023-09-19T00:51:50;1.43;;;1.20;;
7517;SDS011;3800;48.922;9.444;2023-09-19T00:54:20;2.90;;;1.20;;
7517;SDS011;3800;48.922;9.444;2023-09-19T00:56:48;1.77;;;1.30;;
7517;SDS011;3800;48.922;9.444;2023-09-19T00:59:16;2.67;;;1.50;;
7517;SDS011;3800;48.922;9.444;2023-09-19T01:01:44;3.07;;;1.27;;
7517;SDS011;3800;48.922;9.444;2023-09-19T01:04:13;1.53;;;1.20;;
7517;SDS011;3800;48.922;9.444;2023-09-19T01:06:42;1.50;;;1.27;;
7517;SDS011;3800;48.922;9.444;2023-09-19T01:09:11;2.50;;;1.20;;
7517;SDS011;3800;48.922;9.444;2023-09-19T01:11:40;2.43;;;1.47;;
7517;SDS011;3800;48.922;9.444;2023-09-19T01:14:12;2.37;;;1.20;;
7517;SDS011;3800;48.922;9.444;2023-09-19T01:16:48;1.27;;;1.10;;
7517;SDS011;3800;48.922;9.444;2023-09-19T01:22:07;2.13;;;1.30;;
7517;SDS011;3800;48.922;9.444;2023-09-19T01:24:46;2.50;;;1.33;;
7517;SDS011;3800;48.922;9.444;2023-09-19T01:30:33;1.53;;;1.27;;
7517;SDS011;3800;48.922;9.444;2023-09-19T01:33:00;1.20;;;1.10;;
7517;SDS011;3800;48.922;9.444;2023-09-19T01:35:30;2.20;;;1.30;;
7517;SDS011;3800;48.922;9.444;2023-09-19T01:37:58;2.50;;;1.17;;
7517;SDS011;3800;48.922;9.444;2023-09-19T01:40:26;2.27;;;1.47;;
7517;SDS011;3800;48.922;9.444;2023-09-19T01:43:31;2.40;;;1.07;;
7517;SDS011;3800;48.922;9.444;2023-09-19T01:46:09;2.30;;;1.33;;
7517;SDS011;3800;48.922;9.444;2023-09-19T01:48:41;2.50;;;1.20;;
7517;SDS011;3800;48.922;9.444;2023-09-19T01:51:10;1.30;;;1.20;;
7517;SDS011;3800;48.922;9.444;2023-09-19T01:53:43;1.37;;;1.10;;
7517;SDS011;3800;48.922;9.444;2023-09-19T01:56:21;1.43;;;1.20;;
7517;SDS011;3800;48.922;9.444;2023-09-19T01:58:51;2.17;;;1.17;;
7517;SDS011;3800;48.922;9.444;2023-09-19T02:01:20;2.33;;;1.30;;
7517;SDS011;3800;48.922;9.444;2023-09-19T02:03:47;1.10;;;1.00;;
7517;SDS011;3800;48.922;9.444;2023-09-19T02:06:17;3.40;;;1.30;;
7517;SDS011;3800;48.922;9.444;2023-09-19T02:08:45;1.97;;;1.30;;
7517;SDS011;3800;48.922;9.444;2023-09-19T02:11:13;2.43;;;1.27;;
7517;SDS011;3800;48.922;9.444;2023-09-19T02:13:41;1.33;;;1.17;;
7517;SDS011;3800;48.922;9.444;2023-09-19T02:16:10;2.07;;;1.27;;
7517;SDS011;3800;48.922;9.444;2023-09-19T02:18:39;2.90;;;1.20;;
7517;SDS011;3800;48.922;9.444;2023-09-19T02:21:07;1.93;;;1.10;;
7517;SDS011;3800;48.922;9.444;2023-09-19T02:23:35;2.67;;;1.30;;
7517;SDS011;3800;48.922;9.444;2023-09-19T02:26:03;1.90;;;1.40;;
7517;SDS011;3800;48.922;9.444;2023-09-19T02:28:33;3.20;;;1.20;;
7517;SDS011;3800;48.922;9.444;2023-09-19T02:31:01;1.80;;;1.10;;
7517;SDS011;3800;48.922;9.444;2023-09-19T02:33:29;2.40;;;1.13;;
7517;SDS011;3800;48.922;9.444;2023-09-19T02:35:57;2.20;;;1.37;;
7517;SDS011;3800;48.922;9.444;2023-09-19T02:38:26;1.70;;;1.20;;
7517;SDS011;3800;48.922;9.444;2023-09-19T02:40:55;2.53;;;1.20;;
7517;SDS011;3800;48.922;9.444;2023-09-19T02:43:24;1.27;;;1.10;;
7517;SDS011;3800;48.922;9.444;2023-09-19T02:45:53;1.63;;;1.40;;
7517;SDS011;3800;48.922;9.444;2023-09-19T02:48:22;2.23;;;1.30;;
7517;SDS011;3800;48.922;9.444;2023-09-19T02:50:50;1.73;;;1.27;;
7517;SDS011;3800;48.922;9.444;2023-09-19T02:53:18;2.90;;;1.27;;
7517;SDS011;3800;48.922;9.444;2023-09-19T02:55:46;1.60;;;1.20;;
7517;SDS011;3800;48.922;9.444;2023-09-19T02:58:15;1.77;;;1.10;;
7517;SDS011;3800;48.922;9.444;2023-09-19T03:00:43;2.17;;;1.20;;
7517;SDS011;3800;48.922;9.444;2023-09-19T03:03:14;1.77;;;1.20;;
7517;SDS011;3800;48.922;9.444;2023-09-19T03:05:42;1.80;;;1.13;;
7517;SDS011;3800;48.922;9.444;2023-09-19T03:08:12;1.97;;;1.30;;
7517;SDS011;3800;48.922;9.444;2023-09-19T03:10:41;2.00;;;1.30;;
7517;SDS011;3800;48.922;9.444;2023-09-19T03:13:09;1.47;;;1.20;;
7517;SDS011;3800;48.922;9.444;2023-09-19T03:15:40;2.20;;;1.43;;
7517;SDS011;3800;48.922;9.444;2023-09-19T03:18:05;2.23;;;1.27;;
7517;SDS011;3800;48.922;9.444;2023-09-19T03:20:35;1.43;;;1.27;;
7517;SDS011;3800;48.922;9.444;2023-09-19T03:23:03;1.37;;;1.20;;
7517;SDS011;3800;48.922;9.444;2023-09-19T03:25:33;2.53;;;1.37;;
7517;SDS011;3800;48.922;9.444;2023-09-19T03:28:01;1.73;;;1.40;;
7517;SDS011;3800;48.922;9.444;2023-09-19T03:30:29;3.07;;;1.30;;
7517;SDS011;3800;48.922;9.444;2023-09-19T03:32:57;2.37;;;1.33;;
7517;SDS011;3800;48.922;9.444;2023-09-19T03:35:26;4.50;;;1.40;;
7517;SDS011;3800;48.922;9.444;2023-09-19T03:37:54;2.13;;;1.20;;
7517;SDS011;3800;48.922;9.444;2023-09-19T03:40:23;1.73;;;1.20;;
7517;SDS011;3800;48.922;9.444;2023-09-19T03:42:51;1.73;;;1.10;;
7517;SDS011;3800;48.922;9.444;2023-09-19T03:45:19;3.17;;;1.20;;
7517;SDS011;3800;48.922;9.444;2023-09-19T03:47:47;1.80;;;1.30;;
7517;SDS011;3800;48.922;9.444;2023-09-19T03:50:15;2.10;;;1.30;;
7517;SDS011;3800;48.922;9.444;2023-09-19T03:52:44;1.83;;;1.30;;
7517;SDS011;3800;48.922;9.444;2023-09-19T03:55:13;1.20;;;1.10;;
7517;SDS011;3800;48.922;9.444;2023-09-19T03:57:42;2.53;;;1.20;;
7517;SDS011;3800;48.922;9.444;2023-09-19T04:00:10;1.97;;;1.20;;
7517;SDS011;3800;48.922;9.444;2023-09-19T04:02:39;2.00;;;1.10;;
7517;SDS011;3800;48.922;9.444;2023-09-19T04:05:08;1.70;;;1.10;;
7517;SDS011;3800;48.922;9.444;2023-09-19T04:07:36;1.63;;;1.20;;
7517;SDS011;3800;48.922;9.444;2023-09-19T04:10:05;1.73;;;1.10;;
7517;SDS011;3800;48.922;9.444;2023-09-19T04:12:33;2.80;;;1.20;;
7517;SDS011;3800;48.922;9.444;2023-09-19T04:15:02;1.30;;;1.10;;
7517;SDS011;3800;48.922;9.444;2023-09-19T04:17:30;2.13;;;1.23;;
7517;SDS011;3800;48.922;9.444;2023-09-19T04:19:59;2.17;;;1.33;;
7517;SDS011;3800;48.922;9.444;2023-09-19T04:22:28;2.63;;;1.40;;
7517;SDS011;3800;48.922;9.444;2023-09-19T04:24:56;2.10;;;1.50;;
7517;SDS011;3800;48.922;9.444;2023-09-19T04:27:24;3.10;;;1.30;;
7517;SDS011;3800;48.922;9.444;2023-09-19T04:29:52;2.47;;;1.47;;
7517;SDS011;3800;48.922;9.444;2023-09-19T04:32:21;3.10;;;1.30;;
7517;SDS011;3800;48.922;9.444;2023-09-19T04:34:49;3.27;;;1.60;;
7517;SDS011;3800;48.922;9.444;2023-09-19T04:37:18;1.63;;;1.30;;
7517;SDS011;3800;48.922;9.444;2023-09-19T04:39:46;2.73;;;1.33;;
7517;SDS011;3800;48.922;9.444;2023-09-19T04:42:14;1.73;;;1.40;;
7517;SDS011;3800;48.922;9.444;2023-09-19T04:44:43;3.20;;;1.70;;
7517;SDS011;3800;48.922;9.444;2023-09-19T04:47:11;1.63;;;1.40;;
7517;SDS011;3800;48.922;9.444;2023-09-19T04:49:40;1.73;;;1.47;;
7517;SDS011;3800;48.922;9.444;2023-09-19T04:52:09;1.90;;;1.30;;
7517;SDS011;3800;48.922;9.444;2023-09-19T04:54:38;2.17;;;1.60;;
7517;SDS011;3800;48.922;9.444;2023-09-19T04:57:06;4.23;;;1.50;;
7517;SDS011;3800;48.922;9.444;2023-09-19T04:59:35;2.17;;;1.40;;
7517;SDS011;3800;48.922;9.444;2023-09-19T05:02:03;1.33;;;1.23;;
7517;SDS011;3800;48.922;9.444;2023-09-19T05:04:33;1.67;;;1.30;;
7517;SDS011;3800;48.922;9.444;2023-09-19T05:07:01;3.17;;;1.60;;
7517;SDS011;3800;48.922;9.444;2023-09-19T05:09:30;1.93;;;1.50;;
7517;SDS011;3800;48.922;9.444;2023-09-19T05:11:59;2.13;;;1.53;;
7517;SDS011;3800;48.922;9.444;2023-09-19T05:14:27;3.10;;;1.80;;
7517;SDS011;3800;48.922;9.444;2023-09-19T05:16:55;3.40;;;1.43;;
7517;SDS011;3800;48.922;9.444;2023-09-19T05:19:24;3.70;;;1.57;;
7517;SDS011;3800;48.922;9.444;2023-09-19T05:21:53;3.57;;;1.53;;
7517;SDS011;3800;48.922;9.444;2023-09-19T05:24:21;6.87;;;2.20;;
7517;SDS011;3800;48.922;9.444;2023-09-19T05:26:49;4.07;;;1.90;;
7517;SDS011;3800;48.922;9.444;2023-09-19T05:29:17;1.67;;;1.57;;
7517;SDS011;3800;48.922;9.444;2023-09-19T05:31:46;3.63;;;2.00;;
7517;SDS011;3800;48.922;9.444;2023-09-19T05:34:14;2.83;;;2.00;;
7517;SDS011;3800;48.922;9.444;2023-09-19T05:36:43;3.03;;;2.23;;
7517;SDS011;3800;48.922;9.444;2023-09-19T05:39:11;2.87;;;1.90;;
7517;SDS011;3800;48.922;9.444;2023-09-19T05:41:40;5.60;;;1.87;;
7517;SDS011;3800;48.922;9.444;2023-09-19T05:44:09;4.03;;;2.07;;
7517;SDS011;3800;48.922;9.444;2023-09-19T05:46:37;1.97;;;1.77;;
7517;SDS011;3800;48.922;9.444;2023-09-19T05:49:06;5.27;;;2.27;;
7517;SDS011;3800;48.922;9.444;2023-09-19T05:51:34;3.00;;;2.30;;
7517;SDS011;3800;48.922;9.444;2023-09-19T05:54:03;6.43;;;2.30;;
7517;SDS011;3800;48.922;9.444;2023-09-19T05:56:31;3.33;;;2.17;;
7517;SDS011;3800;48.922;9.444;2023-09-19T05:59:00;2.70;;;2.10;;
7517;SDS011;3800;48.922;9.444;2023-09-19T06:01:28;5.80;;;2.40;;
7517;SDS011;3800;48.922;9.444;2023-09-19T06:03:56;3.00;;;1.93;;
7517;SDS011;3800;48.922;9.444;2023-09-19T06:06:25;4.13;;;2.70;;
7517;SDS011;3800;48.922;9.444;2023-09-19T06:08:54;4.00;;;2.63;;
7517;SDS011;3800;48.922;9.444;2023-09-19T06:11:23;4.07;;;2.47;;
7517;SDS011;3800;48.922;9.444;2023-09-19T06:13:52;5.60;;;2.30;;
7517;SDS011;3800;48.922;9.444;2023-09-19T06:16:20;2.47;;;2.17;;
7517;SDS011;3800;48.922;9.444;2023-09-19T06:18:49;3.57;;;2.10;;
7517;SDS011;3800;48.922;9.444;2023-09-19T06:21:17;4.43;;;2.20;;
7517;SDS011;3800;48.922;9.444;2023-09-19T06:23:45;3.30;;;2.67;;
7517;SDS011;3800;48.922;9.444;2023-09-19T06:26:14;3.20;;;2.30;;
7517;SDS011;3800;48.922;9.444;2023-09-19T06:28:43;4.10;;;2.50;;
7517;SDS011;3800;48.922;9.444;2023-09-19T06:31:12;2.57;;;2.27;;
7517;SDS011;3800;48.922;9.444;2023-09-19T06:33:40;4.13;;;2.40;;
7517;SDS011;3800;48.922;9.444;2023-09-19T06:36:09;3.47;;;2.27;;
7517;SDS011;3800;48.922;9.444;2023-09-19T06:38:38;3.43;;;2.37;;
7517;SDS011;3800;48.922;9.444;2023-09-19T06:41:06;4.50;;;2.40;;
7517;SDS011;3800;48.922;9.444;2023-09-19T06:43:34;3.77;;;2.13;;
7517;SDS011;3800;48.922;9.444;2023-09-19T06:46:03;4.53;;;2.27;;
7517;SDS011;3800;48.922;9.444;2023-09-19T06:48:31;4.57;;;2.33;;
7517;SDS011;3800;48.922;9.444;2023-09-19T06:51:00;3.20;;;2.40;;
7517;SDS011;3800;48.922;9.444;2023-09-19T06:53:29;3.63;;;2.40;;
7517;SDS011;3800;48.922;9.444;2023-09-19T06:55:59;3.17;;;2.27;;
7517;SDS011;3800;48.922;9.444;2023-09-19T06:58:28;4.63;;;2.47;;
7517;SDS011;3800;48.922;9.444;2023-09-19T07:00:56;4.27;;;2.80;;
7517;SDS011;3800;48.922;9.444;2023-09-19T07:03:24;4.73;;;2.63;;
7517;SDS011;3800;48.922;9.444;2023-09-19T07:05:52;3.60;;;2.87;;
7517;SDS011;3800;48.922;9.444;2023-09-19T07:08:21;4.73;;;3.03;;
7517;SDS011;3800;48.922;9.444;2023-09-19T07:10:50;4.37;;;2.70;;
7517;SDS011;3800;48.922;9.444;2023-09-19T07:13:18;4.97;;;2.50;;
7517;SDS011;3800;48.922;9.444;2023-09-19T07:15:46;4.73;;;2.80;;
7517;SDS011;3800;48.922;9.444;2023-09-19T07:18:15;3.37;;;2.73;;
7517;SDS011;3800;48.922;9.444;2023-09-19T07:20:43;5.53;;;3.20;;
7517;SDS011;3800;48.922;9.444;2023-09-19T07:23:18;4.67;;;2.60;;
7517;SDS011;3800;48.922;9.444;2023-09-19T07:25:45;7.57;;;2.87;;
7517;SDS011;3800;48.922;9.444;2023-09-19T07:28:13;4.60;;;2.87;;
7517;SDS011;3800;48.922;9.444;2023-09-19T07:30:42;4.77;;;3.10;;
7517;SDS011;3800;48.922;9.444;2023-09-19T07:33:10;4.90;;;2.60;;
7517;SDS011;3800;48.922;9.444;2023-09-19T07:35:39;3.50;;;2.30;;
7517;SDS011;3800;48.922;9.444;2023-09-19T07:38:08;5.93;;;2.50;;
7517;SDS011;3800;48.922;9.444;2023-09-19T07:40:36;5.43;;;2.23;;
7517;SDS011;3800;48.922;9.444;2023-09-19T07:43:04;5.17;;;2.43;;
7517;SDS011;3800;48.922;9.444;2023-09-19T07:45:32;4.57;;;2.40;;
7517;SDS011;3800;48.922;9.444;2023-09-19T07:48:00;4.80;;;2.47;;
7517;SDS011;3800;48.922;9.444;2023-09-19T07:50:29;4.00;;;2.40;;
7517;SDS011;3800;48.922;9.444;2023-09-19T07:52:57;4.90;;;2.50;;
7517;SDS011;3800;48.922;9.444;2023-09-19T07:55:25;3.97;;;2.30;;
7517;SDS011;3800;48.922;9.444;2023-09-19T07:57:54;3.13;;;2.30;;
7517;SDS011;3800;48.922;9.444;2023-09-19T08:00:23;3.07;;;2.00;;
7517;SDS011;3800;48.922;9.444;2023-09-19T08:02:52;6.43;;;2.50;;
7517;SDS011;3800;48.922;9.444;2023-09-19T08:05:20;6.43;;;2.53;;
7517;SDS011;3800;48.922;9.444;2023-09-19T08:07:48;4.13;;;2.23;;
7517;SDS011;3800;48.922;9.444;2023-09-19T08:10:16;6.20;;;2.20;;
7517;SDS011;3800;48.922;9.444;2023-09-19T08:12:45;6.10;;;2.30;;
7517;SDS011;3800;48.922;9.444;2023-09-19T08:15:14;5.10;;;2.30;;
7517;SDS011;3800;48.922;9.444;2023-09-19T08:17:42;4.90;;;2.30;;
7517;SDS011;3800;48.922;9.444;2023-09-19T08:20:10;3.10;;;2.10;;
7517;SDS011;3800;48.922;9.444;2023-09-19T08:22:44;2.90;;;1.93;;
7517;SDS011;3800;48.922;9.444;2023-09-19T08:25:15;3.63;;;2.20;;
7517;SDS011;3800;48.922;9.444;2023-09-19T08:27:46;4.80;;;1.87;;
7517;SDS011;3800;48.922;9.444;2023-09-19T08:30:14;3.97;;;1.70;;
7517;SDS011;3800;48.922;9.444;2023-09-19T08:32:44;2.27;;;1.77;;
7517;SDS011;3800;48.922;9.444;2023-09-19T08:35:12;8.53;;;2.03;;
7517;SDS011;3800;48.922;9.444;2023-09-19T08:37:41;4.33;;;1.87;;
7517;SDS011;3800;48.922;9.444;2023-09-19T08:40:10;3.00;;;1.50;;
7517;SDS011;3800;48.922;9.444;2023-09-19T08:45:16;4.53;;;1.90;;
7517;SDS011;3800;48.922;9.444;2023-09-19T08:47:46;4.37;;;1.80;;
7517;SDS011;3800;48.922;9.444;2023-09-19T08:50:19;4.83;;;1.80;;
7517;SDS011;3800;48.922;9.444;2023-09-19T08:52:47;2.83;;;1.67;;
7517;SDS011;3800;48.922;9.444;2023-09-19T08:55:16;4.13;;;2.00;;
7517;SDS011;3800;48.922;9.444;2023-09-19T08:57:44;2.53;;;1.80;;
7517;SDS011;3800;48.922;9.444;2023-09-19T09:00:12;3.93;;;1.50;;
7517;SDS011;3800;48.922;9.444;2023-09-19T09:02:44;2.77;;;1.40;;
7517;SDS011;3800;48.922;9.444;2023-09-19T09:05:13;2.33;;;1.20;;
7517;SDS011;3800;48.922;9.444;2023-09-19T09:07:41;3.40;;;1.70;;
7517;SDS011;3800;48.922;9.444;2023-09-19T09:10:12;3.73;;;1.70;;
7517;SDS011;3800;48.922;9.444;2023-09-19T09:12:41;2.13;;;1.60;;
7517;SDS011;3800;48.922;9.444;2023-09-19T09:15:10;2.90;;;1.80;;
7517;SDS011;3800;48.922;9.444;2023-09-19T09:17:38;2.47;;;1.47;;
7517;SDS011;3800;48.922;9.444;2023-09-19T09:20:06;2.00;;;1.70;;
7517;SDS011;3800;48.922;9.444;2023-09-19T09:22:36;3.27;;;1.70;;
7517;SDS011;3800;48.922;9.444;2023-09-19T09:25:05;4.77;;;1.70;;
7517;SDS011;3800;48.922;9.444;2023-09-19T09:27:35;1.67;;;1.50;;
7517;SDS011;3800;48.922;9.444;2023-09-19T09:30:03;2.10;;;1.40;;
7517;SDS011;3800;48.922;9.444;2023-09-19T09:32:32;2.70;;;1.40;;
7517;SDS011;3800;48.922;9.444;2023-09-19T09:35:01;2.50;;;1.70;;
7517;SDS011;3800;48.922;9.444;2023-09-19T09:37:29;4.93;;;1.50;;
7517;SDS011;3800;48.922;9.444;2023-09-19T09:39:58;1.70;;;1.50;;
7517;SDS011;3800;48.922;9.444;2023-09-19T09:42:30;3.90;;;1.60;;
7517;SDS011;3800;48.922;9.444;2023-09-19T09:48:05;2.13;;;1.60;;
7517;SDS011;3800;48.922;9.444;2023-09-19T09:50:34;2.57;;;1.60;;
7517;SDS011;3800;48.922;9.444;2023-09-19T09:53:24;3.20;;;1.43;;
7517;SDS011;3800;48.922;9.444;2023-09-19T09:55:57;2.03;;;1.57;;
7517;SDS011;3800;48.922;9.444;2023-09-19T09:58:34;2.83;;;1.40;;
7517;SDS011;3800;48.922;9.444;2023-09-19T10:01:05;2.57;;;1.67;;
7517;SDS011;3800;48.922;9.444;2023-09-19T10:03:37;2.60;;;1.50;;
7517;SDS011;3800;48.922;9.444;2023-09-19T10:06:09;2.50;;;1.50;;
7517;SDS011;3800;48.922;9.444;2023-09-19T10:08:57;4.00;;;1.60;;
7517;SDS011;3800;48.922;9.444;2023-09-19T10:11:29;2.03;;;1.40;;
7517;SDS011;3800;48.922;9.444;2023-09-19T10:13:58;2.60;;;1.77;;
7517;SDS011;3800;48.922;9.444;2023-09-19T10:16:25;2.37;;;1.40;;
7517;SDS011;3800;48.922;9.444;2023-09-19T10:18:54;3.03;;;1.47;;
7517;SDS011;3800;48.922;9.444;2023-09-19T10:21:24;2.67;;;1.50;;
7517;SDS011;3800;48.922;9.444;2023-09-19T10:23:54;2.07;;;1.40;;
7517;SDS011;3800;48.922;9.444;2023-09-19T10:26:22;1.50;;;1.30;;
7517;SDS011;3800;48.922;9.444;2023-09-19T10:28:51;1.57;;;1.40;;
7517;SDS011;3800;48.922;9.444;2023-09-19T10:31:19;1.67;;;1.30;;
7517;SDS011;3800;48.922;9.444;2023-09-19T10:33:48;3.50;;;1.60;;
7517;SDS011;3800;48.922;9.444;2023-09-19T10:36:17;2.40;;;1.50;;
7517;SDS011;3800;48.922;9.444;2023-09-19T10:38:45;2.70;;;1.50;;
7517;SDS011;3800;48.922;9.444;2023-09-19T10:41:14;1.70;;;1.43;;
7517;SDS011;3800;48.922;9.444;2023-09-19T10:43:42;2.80;;;1.60;;
7517;SDS011;3800;48.922;9.444;2023-09-19T10:46:11;2.57;;;1.80;;
7517;SDS011;3800;48.922;9.444;2023-09-19T10:48:39;3.53;;;1.60;;
7517;SDS011;3800;48.922;9.444;2023-09-19T10:51:15;1.97;;;1.33;;
7517;SDS011;3800;48.922;9.444;2023-09-19T10:53:47;2.43;;;1.30;;
7517;SDS011;3800;48.922;9.444;2023-09-19T10:56:38;3.60;;;1.60;;
7517;SDS011;3800;48.922;9.444;2023-09-19T10:59:09;2.93;;;1.40;;
7517;SDS011;3800;48.922;9.444;2023-09-19T11:01:42;1.80;;;1.30;;
7517;SDS011;3800;48.922;9.444;2023-09-19T11:07:01;3.90;;;2.30;;
7517;SDS011;3800;48.922;9.444;2023-09-19T11:18:03;3.10;;;1.80;;
7517;SDS011;3800;48.922;9.444;2023-09-19T11:20:32;1.60;;;1.40;;
7517;SDS011;3800;48.922;9.444;2023-09-19T11:23:17;1.87;;;1.40;;
7517;SDS011;3800;48.922;9.444;2023-09-19T11:25:44;5.00;;;1.60;;
7517;SDS011;3800;48.922;9.444;2023-09-19T11:28:27;2.10;;;1.40;;
7517;SDS011;3800;48.922;9.444;2023-09-19T11:30:55;4.43;;;1.60;;
7517;SDS011;3800;48.922;9.444;2023-09-19T11:33:26;2.73;;;1.37;;
7517;SDS011;3800;48.922;9.444;2023-09-19T11:36:00;1.87;;;1.30;;
7517;SDS011;3800;48.922;9.444;2023-09-19T11:47:03;2.97;;;1.50;;
7517;SDS011;3800;48.922;9.444;2023-09-19T11:49:31;3.07;;;1.70;;
7517;SDS011;3800;48.922;9.444;2023-09-19T11:52:00;2.13;;;1.50;;
7517;SDS011;3800;48.922;9.444;2023-09-19T11:54:28;2.37;;;1.50;;
7517;SDS011;3800;48.922;9.444;2023-09-19T11:56:57;2.23;;;1.40;;
7517;SDS011;3800;48.922;9.444;2023-09-19T11:59:27;3.03;;;1.53;;
7517;SDS011;3800;48.922;9.444;2023-09-19T12:01:56;2.37;;;1.30;;
7517;SDS011;3800;48.922;9.444;2023-09-19T12:04:34;3.07;;;1.27;;
7517;SDS011;3800;48.922;9.444;2023-09-19T12:07:06;2.10;;;1.23;;
7517;SDS011;3800;48.922;9.444;2023-09-19T12:09:45;2.43;;;1.43;;
7517;SDS011;3800;48.922;9.444;2023-09-19T12:12:30;2.77;;;1.20;;
7517;SDS011;3800;48.922;9.444;2023-09-19T12:14:58;2.73;;;1.30;;
7517;SDS011;3800;48.922;9.444;2023-09-19T12:20:05;4.03;;;1.73;;
7517;SDS011;3800;48.922;9.444;2023-09-19T12:22:41;2.73;;;1.50;;
7517;SDS011;3800;48.922;9.444;2023-09-19T12:25:10;2.50;;;1.37;;
7517;SDS011;3800;48.922;9.444;2023-09-19T12:27:45;4.37;;;1.60;;
7517;SDS011;3800;48.922;9.444;2023-09-19T12:30:15;1.97;;;1.27;;
7517;SDS011;3800;48.922;9.444;2023-09-19T12:32:43;3.00;;;1.43;;
7517;SDS011;3800;48.922;9.444;2023-09-19T12:35:26;2.13;;;1.57;;
7517;SDS011;3800;48.922;9.444;2023-09-19T12:37:43;2.47;;;1.27;;
7517;SDS011;3800;48.922;9.444;2023-09-19T12:40:13;1.80;;;1.30;;
7517;SDS011;3800;48.922;9.444;2023-09-19T12:42:44;2.00;;;1.30;;
7517;SDS011;3800;48.922;9.444;2023-09-19T12:45:15;2.50;;;1.50;;
7517;SDS011;3800;48.922;9.444;2023-09-19T12:50:59;2.43;;;1.40;;
7517;SDS011;3800;48.922;9.444;2023-09-19T12:53:34;3.77;;;1.33;;
7517;SDS011;3800;48.922;9.444;2023-09-19T12:56:11;3.77;;;1.43;;
7517;SDS011;3800;48.922;9.444;2023-09-19T13:01:21;4.13;;;1.40;;
7517;SDS011;3800;48.922;9.444;2023-09-19T13:06:38;2.43;;;1.53;;
7517;SDS011;3800;48.922;9.444;2023-09-19T13:09:08;3.70;;;1.33;;
7517;SDS011;3800;48.922;9.444;2023-09-19T13:11:37;4.27;;;1.50;;
7517;SDS011;3800;48.922;9.444;2023-09-19T13:14:13;4.57;;;1.50;;
7517;SDS011;3800;48.922;9.444;2023-09-19T13:16:57;2.10;;;1.70;;
7517;SDS011;3800;48.922;9.444;2023-09-19T13:19:38;4.07;;;1.70;;
7517;SDS011;3800;48.922;9.444;2023-09-19T13:25:00;1.83;;;1.40;;
7517;SDS011;3800;48.922;9.444;2023-09-19T13:27:28;1.67;;;1.27;;
7517;SDS011;3800;48.922;9.444;2023-09-19T13:29:57;6.00;;;1.40;;
7517;SDS011;3800;48.922;9.444;2023-09-19T13:32:25;2.03;;;1.20;;
7517;SDS011;3800;48.922;9.444;2023-09-19T13:34:54;2.60;;;1.33;;
7517;SDS011;3800;48.922;9.444;2023-09-19T13:37:25;2.37;;;1.47;;
7517;SDS011;3800;48.922;9.444;2023-09-19T13:39:54;2.33;;;1.50;;
7517;SDS011;3800;48.922;9.444;2023-09-19T13:42:24;1.73;;;1.27;;
7517;SDS011;3800;48.922;9.444;2023-09-19T13:44:51;2.67;;;1.50;;
7517;SDS011;3800;48.922;9.444;2023-09-19T13:47:19;2.20;;;1.30;;
7517;SDS011;3800;48.922;9.444;2023-09-19T13:49:48;2.13;;;1.40;;
7517;SDS011;3800;48.922;9.444;2023-09-19T13:52:19;1.67;;;1.30;;
7517;SDS011;3800;48.922;9.444;2023-09-19T13:54:48;2.00;;;1.20;;
7517;SDS011;3800;48.922;9.444;2023-09-19T13:57:18;2.73;;;1.33;;
7517;SDS011;3800;48.922;9.444;2023-09-19T13:59:46;1.93;;;1.20;;
7517;SDS011;3800;48.922;9.444;2023-09-19T14:02:14;2.53;;;1.43;;
7517;SDS011;3800;48.922;9.444;2023-09-19T14:04:42;4.40;;;1.40;;
7517;SDS011;3800;48.922;9.444;2023-09-19T14:07:11;2.23;;;1.40;;
7517;SDS011;3800;48.922;9.444;2023-09-19T14:09:39;2.50;;;1.50;;
7517;SDS011;3800;48.922;9.444;2023-09-19T14:12:08;1.63;;;1.50;;
7517;SDS011;3800;48.922;9.444;2023-09-19T14:14:37;3.07;;;1.50;;
7517;SDS011;3800;48.922;9.444;2023-09-19T14:17:06;3.53;;;1.50;;
7517;SDS011;3800;48.922;9.444;2023-09-19T14:19:34;2.60;;;1.23;;
7517;SDS011;3800;48.922;9.444;2023-09-19T14:22:02;2.43;;;1.50;;
7517;SDS011;3800;48.922;9.444;2023-09-19T14:24:32;2.60;;;1.20;;
7517;SDS011;3800;48.922;9.444;2023-09-19T14:27:01;3.43;;;1.50;;
7517;SDS011;3800;48.922;9.444;2023-09-19T14:29:30;3.00;;;1.40;;
7517;SDS011;3800;48.922;9.444;2023-09-19T14:31:58;3.27;;;1.73;;
7517;SDS011;3800;48.922;9.444;2023-09-19T14:34:28;5.20;;;1.67;;
7517;SDS011;3800;48.922;9.444;2023-09-19T14:36:57;3.33;;;1.50;;
7517;SDS011;3800;48.922;9.444;2023-09-19T14:39:27;2.63;;;1.53;;
7517;SDS011;3800;48.922;9.444;2023-09-19T14:41:55;3.30;;;1.37;;
7517;SDS011;3800;48.922;9.444;2023-09-19T14:44:24;3.03;;;1.50;;
7517;SDS011;3800;48.922;9.444;2023-09-19T14:46:53;2.57;;;1.63;;
7517;SDS011;3800;48.922;9.444;2023-09-19T14:49:22;2.03;;;1.60;;
7517;SDS011;3800;48.922;9.444;2023-09-19T14:51:50;3.47;;;1.73;;
7517;SDS011;3800;48.922;9.444;2023-09-19T14:54:20;3.23;;;1.47;;
7517;SDS011;3800;48.922;9.444;2023-09-19T14:56:50;3.83;;;1.47;;
7517;SDS011;3800;48.922;9.444;2023-09-19T14:59:18;3.00;;;1.40;;
7517;SDS011;3800;48.922;9.444;2023-09-19T15:01:47;2.90;;;1.40;;
7517;SDS011;3800;48.922;9.444;2023-09-19T15:04:16;2.77;;;1.40;;
7517;SDS011;3800;48.922;9.444;2023-09-19T15:06:45;3.37;;;1.67;;
7517;SDS011;3800;48.922;9.444;2023-09-19T15:09:14;2.40;;;1.40;;
7517;SDS011;3800;48.922;9.444;2023-09-19T15:11:44;2.50;;;1.33;;
7517;SDS011;3800;48.922;9.444;2023-09-19T15:14:12;2.07;;;1.40;;
7517;SDS011;3800;48.922;9.444;2023-09-19T15:16:40;1.97;;;1.40;;
7517;SDS011;3800;48.922;9.444;2023-09-19T15:19:10;3.00;;;1.37;;
7517;SDS011;3800;48.922;9.444;2023-09-19T15:21:39;2.83;;;1.53;;
7517;SDS011;3800;48.922;9.444;2023-09-19T15:24:08;3.20;;;1.90;;
7517;SDS011;3800;48.922;9.444;2023-09-19T15:26:37;2.57;;;1.70;;
7517;SDS011;3800;48.922;9.444;2023-09-19T15:29:06;2.17;;;1.53;;
7517;SDS011;3800;48.922;9.444;2023-09-19T15:31:34;2.93;;;1.50;;
7517;SDS011;3800;48.922;9.444;2023-09-19T15:34:04;2.90;;;1.80;;
7517;SDS011;3800;48.922;9.444;2023-09-19T15:36:33;3.80;;;1.50;;
7517;SDS011;3800;48.922;9.444;2023-09-19T15:39:02;3.20;;;1.50;;
7517;SDS011;3800;48.922;9.444;2023-09-19T15:41:31;3.10;;;1.67;;
7517;SDS011;3800;48.922;9.444;2023-09-19T15:43:59;1.70;;;1.23;;
7517;SDS011;3800;48.922;9.444;2023-09-19T15:46:30;2.23;;;1.60;;
7517;SDS011;3800;48.922;9.444;2023-09-19T15:48:57;2.10;;;1.43;;
7517;SDS011;3800;48.922;9.444;2023-09-19T15:51:26;2.17;;;1.37;;
7517;SDS011;3800;48.922;9.444;2023-09-19T15:53:54;1.87;;;1.33;;
7517;SDS011;3800;48.922;9.444;2023-09-19T15:56:23;1.90;;;1.50;;
7517;SDS011;3800;48.922;9.444;2023-09-19T15:58:51;2.87;;;1.30;;
7517;SDS011;3800;48.922;9.444;2023-09-19T16:01:21;2.43;;;1.60;;
7517;SDS011;3800;48.922;9.444;2023-09-19T16:03:49;3.70;;;1.50;;
7517;SDS011;3800;48.922;9.444;2023-09-19T16:06:18;1.40;;;1.30;;
7517;SDS011;3800;48.922;9.444;2023-09-19T16:08:47;2.37;;;1.40;;
7517;SDS011;3800;48.922;9.444;2023-09-19T16:11:17;2.00;;;1.27;;
7517;SDS011;3800;48.922;9.444;2023-09-19T16:13:46;2.53;;;1.40;;
7517;SDS011;3800;48.922;9.444;2023-09-19T16:16:15;2.87;;;1.50;;